This is the latest recevied weather packets stored in our database for station/object F6BIJ-13. If no packets are shown the sender has not sent any weather packets the latest 10 day(s).
| Time | Temp. | Humidity | Pressure | Rain* | Wind** | Luminosity | Snow |
|---|---|---|---|---|---|---|---|
| 1778014477 | 11.67° C | 94% | 1012.4 hPa | 0 mm | - | - | - |
| 1778014117 | 11.67° C | 93% | 1012.3 hPa | 0 mm | - | - | - |
| 1778013757 | 11.67° C | 93% | 1012.3 hPa | 0 mm | - | - | - |
| 1778013397 | 11.67° C | 93% | 1012.3 hPa | 0 mm | - | - | - |
| 1778013037 | 11.67° C | 93% | 1012.4 hPa | 0 mm | - | - | - |
| 1778012677 | 11.67° C | 92% | 1012.2 hPa | 0 mm | - | - | - |
| 1778012317 | 12.22° C | 91% | 1012.2 hPa | 0 mm | - | - | - |
| 1778011958 | 12.22° C | 91% | 1012.3 hPa | 1.02 mm | - | - | - |
| 1778011597 | 12.22° C | 89% | 1012.2 hPa | 1.52 mm | - | - | - |
| 1778011237 | 12.22° C | 88% | 1012.2 hPa | 2.03 mm | - | - | - |
| 1778010877 | 12.78° C | 86% | 1012.1 hPa | 1.27 mm | - | - | - |
| 1778010157 | 12.22° C | 88% | 1011.9 hPa | 1.02 mm | - | - | - |
| 1778009077 | 12.78° C | 86% | 1011.5 hPa | 0 mm | - | - | - |
| 1778008717 | 12.78° C | 86% | 1011.4 hPa | 0 mm | - | - | - |
| 1778008357 | 12.78° C | 85% | 1011.2 hPa | 0 mm | - | - | - |
| 1778007997 | 13.33° C | 83% | 1011.2 hPa | 0 mm | - | - | - |
| 1778007640 | 13.33° C | 81% | 1010.9 hPa | 0 mm | - | - | - |
| 1778007277 | 13.33° C | 79% | 1010.9 hPa | 0 mm | - | - | - |
| 1778006917 | 13.33° C | 79% | 1010.9 hPa | 0 mm | - | - | - |
| 1778006557 | 13.89° C | 79% | 1011 hPa | 0 mm | - | - | - |
| 1778006197 | 14.44° C | 79% | 1010.9 hPa | 0 mm | - | - | - |
| 1778005837 | 14.44° C | 79% | 1010.8 hPa | 0 mm | - | - | - |
| 1778005477 | 14.44° C | 81% | 1010.8 hPa | 0 mm | - | - | - |
| 1778005117 | 15° C | 80% | 1010.7 hPa | 0 mm | - | - | - |
| 1778004757 | 14.44° C | 79% | 1010.6 hPa | 0 mm | - | - | - |
* Rain latest 24 hours (hover to see other rain measurements)
** Current wind speed in m/s (hover to see current wind gust speed)